Time;durP1;ratioP1;P1;durP2;ratioP2;P2;SDS_P1;SDS_P2;PMS_P1;PMS_P2;Temp;Humidity;BMP_temperature;BMP_pressure;BME280_temperature;BME280_humidity;BME280_pressure;Samples;Min_cycle;Max_cycle;Signal;HPM_P1;HPM_P2
2023/01/06 00:01:15;;;;;;;30.63;8.20;;;;;;;;;;5072062;28;20056;-78
2023/01/06 00:03:41;;;;;;;23.63;7.88;;;;;;;;;;5071997;28;20401;-78
2023/01/06 00:06:09;;;;;;;36.55;8.82;;;;;;;;;;5071653;28;20052;-78
2023/01/06 00:08:35;;;;;;;24.80;8.15;;;;;;;;;;5071869;28;20032;-78
2023/01/06 00:11:09;;;;;;;29.70;8.93;;;;;;;;;;5071268;28;20041;-78
2023/01/06 00:13:35;;;;;;;23.25;8.52;;;;;;;;;;5071533;28;20044;-78
2023/01/06 00:16:09;;;;;;;22.17;7.47;;;;;;;;;;5054637;28;20087;-78
2023/01/06 00:18:35;;;;;;;19.08;7.57;;;;;;;;;;5071507;28;20036;-78
2023/01/06 00:21:01;;;;;;;24.50;7.80;;;;;;;;;;5063074;28;20045;-78
2023/01/06 00:23:28;;;;;;;19.33;7.47;;;;;;;;;;5066285;28;20047;-78
2023/01/06 00:25:54;;;;;;;23.77;8.07;;;;;;;;;;5071182;28;20049;-78
2023/01/06 00:28:20;;;;;;;20.52;6.50;;;;;;;;;;5071642;28;20401;-78
2023/01/06 00:30:46;;;;;;;21.45;7.53;;;;;;;;;;5054355;28;20123;-78
2023/01/06 00:33:12;;;;;;;15.80;6.63;;;;;;;;;;5054851;28;20043;-78
2023/01/06 00:35:38;;;;;;;16.67;5.88;;;;;;;;;;5063565;28;20052;-78
2023/01/06 00:38:04;;;;;;;14.05;5.30;;;;;;;;;;5066339;28;20045;-78
2023/01/06 00:40:30;;;;;;;13.65;5.10;;;;;;;;;;5063323;28;20045;-78
2023/01/06 00:42:57;;;;;;;16.60;5.18;;;;;;;;;;5072610;28;20093;-78
2023/01/06 00:45:23;;;;;;;15.63;5.47;;;;;;;;;;5071345;28;20046;-78
2023/01/06 00:47:49;;;;;;;14.93;5.65;;;;;;;;;;5072045;28;20041;-78
2023/01/06 00:50:15;;;;;;;15.43;6.30;;;;;;;;;;5071555;28;20085;-78
2023/01/06 00:52:41;;;;;;;10.75;5.50;;;;;;;;;;5071216;28;20123;-78
2023/01/06 00:55:07;;;;;;;16.02;5.85;;;;;;;;;;5053966;28;20422;-78
2023/01/06 00:57:33;;;;;;;16.25;5.75;;;;;;;;;;5072207;28;20088;-78
2023/01/06 00:59:59;;;;;;;12.20;5.60;;;;;;;;;;5070937;28;20377;-78
2023/01/06 01:02:26;;;;;;;11.13;5.90;;;;;;;;;;5071247;28;20541;-78
2023/01/06 01:04:52;;;;;;;12.32;5.70;;;;;;;;;;5054033;28;20044;-78
2023/01/06 01:07:18;;;;;;;15.57;6.35;;;;;;;;;;5054174;28;20123;-78
2023/01/06 01:09:44;;;;;;;17.90;6.90;;;;;;;;;;5070888;28;20040;-78
2023/01/06 01:12:11;;;;;;;15.65;7.10;;;;;;;;;;5070518;28;20049;-78
2023/01/06 01:14:38;;;;;;;20.15;7.65;;;;;;;;;;5071009;28;20053;-78
2023/01/06 01:17:04;;;;;;;15.98;7.72;;;;;;;;;;5070344;28;20058;-78
2023/01/06 01:19:30;;;;;;;17.38;8.07;;;;;;;;;;5054210;28;20033;-78
2023/01/06 01:21:57;;;;;;;15.52;7.50;;;;;;;;;;5070666;28;20455;-78
2023/01/06 01:24:23;;;;;;;16.13;7.72;;;;;;;;;;5068344;28;20112;-78
2023/01/06 01:26:49;;;;;;;17.90;8.57;;;;;;;;;;5070999;28;20044;-79
2023/01/06 01:29:16;;;;;;;16.02;8.68;;;;;;;;;;5071895;28;20040;-77
2023/01/06 01:31:42;;;;;;;19.88;8.45;;;;;;;;;;5070692;28;20044;-78
2023/01/06 01:34:10;;;;;;;15.93;8.32;;;;;;;;;;5060332;28;20040;-78
2023/01/06 01:36:36;;;;;;;14.60;7.93;;;;;;;;;;5054565;28;20045;-78
2023/01/06 01:39:02;;;;;;;16.05;7.63;;;;;;;;;;5055484;28;20048;-78
2023/01/06 01:41:29;;;;;;;18.02;7.85;;;;;;;;;;5054482;28;20063;-78
2023/01/06 01:43:57;;;;;;;14.57;6.88;;;;;;;;;;5055795;28;20440;-78
2023/01/06 01:46:34;;;;;;;14.60;7.40;;;;;;;;;;5054733;28;20043;-78
2023/01/06 01:49:02;;;;;;;14.45;6.65;;;;;;;;;;5037741;28;20040;-78
2023/01/06 01:51:29;;;;;;;16.70;6.97;;;;;;;;;;5054526;28;20059;-77
2023/01/06 01:53:58;;;;;;;16.60;7.10;;;;;;;;;;5053887;28;20037;-77
2023/01/06 01:56:27;;;;;;;14.60;6.28;;;;;;;;;;5054093;28;20100;-77
2023/01/06 01:58:55;;;;;;;15.88;6.40;;;;;;;;;;5054273;28;20067;-77
2023/01/06 02:01:21;;;;;;;16.17;6.43;;;;;;;;;;5073539;28;20040;-78
2023/01/06 02:03:47;;;;;;;16.70;6.25;;;;;;;;;;5054396;28;20045;-77
2023/01/06 02:06:15;;;;;;;12.82;5.43;;;;;;;;;;5053853;28;20037;-78
2023/01/06 02:08:44;;;;;;;18.73;5.45;;;;;;;;;;5064173;28;20055;-77
2023/01/06 02:11:10;;;;;;;11.52;4.88;;;;;;;;;;5057266;28;20041;-77
2023/01/06 02:13:38;;;;;;;10.63;4.75;;;;;;;;;;5037461;28;20102;-77
2023/01/06 02:16:08;;;;;;;11.63;4.60;;;;;;;;;;5036847;28;20041;-77
2023/01/06 02:18:54;;;;;;;14.63;4.53;;;;;;;;;;5054348;28;20398;-77
2023/01/06 02:21:40;;;;;;;14.40;5.05;;;;;;;;;;5054944;28;20037;-77
2023/01/06 02:24:09;;;;;;;10.63;4.22;;;;;;;;;;5054470;28;20124;-77
2023/01/06 02:26:47;;;;;;;9.90;4.10;;;;;;;;;;5054831;28;20570;-77
2023/01/06 02:29:13;;;;;;;10.25;4.40;;;;;;;;;;5053565;28;20051;-78
2023/01/06 02:31:56;;;;;;;11.68;4.25;;;;;;;;;;5053554;28;20041;-77
2023/01/06 02:34:41;;;;;;;7.53;4.30;;;;;;;;;;5053459;28;20045;-77
2023/01/06 02:37:16;;;;;;;9.50;4.50;;;;;;;;;;5039031;28;20029;-77
2023/01/06 02:39:42;;;;;;;12.30;4.65;;;;;;;;;;5053392;28;20036;-77
2023/01/06 02:42:08;;;;;;;9.30;4.40;;;;;;;;;;5053211;28;20166;-77
2023/01/06 02:44:34;;;;;;;11.30;5.10;;;;;;;;;;5053580;28;20037;-77
2023/01/06 02:47:10;;;;;;;9.80;4.95;;;;;;;;;;5052152;28;20033;-78
2023/01/06 02:49:45;;;;;;;11.88;5.93;;;;;;;;;;5053563;28;20037;-77
2023/01/06 02:52:32;;;;;;;12.98;5.70;;;;;;;;;;5052795;28;20040;-78
2023/01/06 02:55:02;;;;;;;8.95;5.13;;;;;;;;;;5052873;28;20049;-77
2023/01/06 02:57:31;;;;;;;9.95;5.53;;;;;;;;;;5053237;28;20088;-77
2023/01/06 03:00:17;;;;;;;11.88;6.10;;;;;;;;;;5053262;28;20045;-77
2023/01/06 03:02:45;;;;;;;14.10;6.37;;;;;;;;;;5052255;28;20045;-77
2023/01/06 03:05:13;;;;;;;11.25;6.50;;;;;;;;;;5052617;28;20049;-78
2023/01/06 03:07:40;;;;;;;12.48;6.57;;;;;;;;;;5054199;28;20065;-77
2023/01/06 03:10:07;;;;;;;10.73;6.70;;;;;;;;;;5052859;28;20494;-77
2023/01/06 03:12:38;;;;;;;15.85;7.28;;;;;;;;;;5054521;28;20065;-77
2023/01/06 03:15:04;;;;;;;14.68;7.55;;;;;;;;;;5052670;28;20567;-77
2023/01/06 03:17:31;;;;;;;11.63;6.95;;;;;;;;;;5052623;28;20095;-77
2023/01/06 03:19:57;;;;;;;13.10;7.50;;;;;;;;;;5086612;28;20506;-77
2023/01/06 03:22:23;;;;;;;16.20;7.78;;;;;;;;;;5052221;28;20032;-78
2023/01/06 03:24:49;;;;;;;14.43;7.75;;;;;;;;;;5036271;28;20107;-77
2023/01/06 03:27:17;;;;;;;14.98;7.95;;;;;;;;;;5052183;28;20106;-77
2023/01/06 03:29:43;;;;;;;10.88;6.85;;;;;;;;;;5052943;28;20045;-77
2023/01/06 03:32:20;;;;;;;15.35;7.60;;;;;;;;;;5052308;28;20048;-77
2023/01/06 03:34:49;;;;;;;12.32;6.97;;;;;;;;;;5052841;28;20108;-77
2023/01/06 03:37:18;;;;;;;14.35;6.55;;;;;;;;;;5052512;28;20048;-78
2023/01/06 03:39:47;;;;;;;12.25;6.60;;;;;;;;;;5052358;28;20102;-77
2023/01/06 03:45:38;;;;;;;12.23;6.28;;;;;;;;;;5049481;28;20049;-77
2023/01/06 03:48:22;;;;;;;12.95;6.25;;;;;;;;;;5044676;28;20041;-78
2023/01/06 03:50:51;;;;;;;10.43;5.53;;;;;;;;;;5052097;28;20102;-78
2023/01/06 03:53:22;;;;;;;11.55;5.32;;;;;;;;;;5052074;28;20132;-77
2023/01/06 03:55:52;;;;;;;10.90;5.45;;;;;;;;;;5047124;28;20085;-77
2023/01/06 03:58:19;;;;;;;8.65;5.18;;;;;;;;;;5042093;28;20106;-77
2023/01/06 04:00:46;;;;;;;8.23;5.00;;;;;;;;;;5052062;28;20044;-77
2023/01/06 04:03:13;;;;;;;12.40;5.10;;;;;;;;;;5051576;28;20036;-77
2023/01/06 04:05:40;;;;;;;8.20;4.15;;;;;;;;;;5053523;28;20049;-77
2023/01/06 04:08:06;;;;;;;7.60;4.30;;;;;;;;;;5051954;28;20028;-77
2023/01/06 04:10:32;;;;;;;7.93;4.13;;;;;;;;;;5052860;28;20032;-77
2023/01/06 04:12:58;;;;;;;8.45;3.92;;;;;;;;;;5052050;28;20072;-78
2023/01/06 04:15:25;;;;;;;7.88;3.53;;;;;;;;;;5051423;28;20049;-77
2023/01/06 04:17:51;;;;;;;6.85;3.38;;;;;;;;;;5052095;28;20386;-77
2023/01/06 04:20:19;;;;;;;8.35;3.60;;;;;;;;;;5051787;28;20040;-77
2023/01/06 04:22:45;;;;;;;6.78;3.38;;;;;;;;;;5052134;28;20490;-77
2023/01/06 04:25:11;;;;;;;6.63;3.72;;;;;;;;;;5043132;28;20114;-76
2023/01/06 04:27:37;;;;;;;8.23;3.42;;;;;;;;;;5046196;28;20280;-77
2023/01/06 04:30:04;;;;;;;6.82;3.40;;;;;;;;;;5053156;28;20087;-78
2023/01/06 04:32:30;;;;;;;7.95;3.40;;;;;;;;;;5051555;28;20401;-78
2023/01/06 04:34:56;;;;;;;5.55;3.10;;;;;;;;;;5051637;28;20036;-77
2023/01/06 04:37:23;;;;;;;10.95;3.53;;;;;;;;;;5034946;28;20040;-77
2023/01/06 04:39:49;;;;;;;7.13;3.10;;;;;;;;;;5034749;28;20486;-77
2023/01/06 04:42:15;;;;;;;6.25;3.03;;;;;;;;;;5050695;28;20033;-78
2023/01/06 04:44:41;;;;;;;6.40;3.17;;;;;;;;;;5051455;28;20494;-77
2023/01/06 04:47:08;;;;;;;7.03;3.05;;;;;;;;;;5051362;28;20455;-77
2023/01/06 04:49:34;;;;;;;7.32;3.17;;;;;;;;;;5051095;28;20735;-78
2023/01/06 04:52:00;;;;;;;6.43;2.90;;;;;;;;;;5051384;28;20555;-77
2023/01/06 04:54:26;;;;;;;4.72;2.95;;;;;;;;;;5050854;28;20498;-78
2023/01/06 04:56:52;;;;;;;7.43;3.35;;;;;;;;;;5051065;28;20065;-77
2023/01/06 04:59:18;;;;;;;7.85;3.55;;;;;;;;;;5044982;28;20045;-78
2023/01/06 05:01:44;;;;;;;7.15;3.45;;;;;;;;;;5070476;28;20073;-77
2023/01/06 05:04:10;;;;;;;8.30;3.63;;;;;;;;;;5048600;28;20060;-77
2023/01/06 05:06:38;;;;;;;5.75;3.50;;;;;;;;;;5050323;28;20040;-77
2023/01/06 05:09:04;;;;;;;9.38;4.15;;;;;;;;;;5050552;28;20049;-77
2023/01/06 05:11:30;;;;;;;8.90;4.07;;;;;;;;;;5042459;28;20037;-77
2023/01/06 05:13:56;;;;;;;6.70;4.40;;;;;;;;;;5045039;28;20397;-78
2023/01/06 05:16:33;;;;;;;7.10;4.47;;;;;;;;;;5050722;28;20041;-78
2023/01/06 05:19:00;;;;;;;9.15;4.68;;;;;;;;;;5051016;28;20048;-78
2023/01/06 05:21:27;;;;;;;10.15;4.88;;;;;;;;;;5051831;28;20045;-78
2023/01/06 05:23:53;;;;;;;8.88;4.43;;;;;;;;;;5052354;28;20398;-77
2023/01/06 05:26:21;;;;;;;11.90;4.72;;;;;;;;;;5051798;28;20033;-77
2023/01/06 05:28:47;;;;;;;9.73;4.85;;;;;;;;;;5051129;28;20056;-78
2023/01/06 05:31:14;;;;;;;8.75;5.20;;;;;;;;;;5050836;28;20048;-77
2023/01/06 05:33:40;;;;;;;10.35;4.90;;;;;;;;;;5050443;28;20052;-77
2023/01/06 05:36:10;;;;;;;11.10;4.60;;;;;;;;;;5050583;28;20041;-77
2023/01/06 05:38:37;;;;;;;7.85;4.80;;;;;;;;;;5050497;28;20179;-77
2023/01/06 05:41:03;;;;;;;9.07;5.10;;;;;;;;;;5050817;28;20037;-77
2023/01/06 05:43:29;;;;;;;9.05;4.63;;;;;;;;;;5050353;28;20526;-77
2023/01/06 05:45:56;;;;;;;7.68;4.50;;;;;;;;;;5050944;28;20045;-77
2023/01/06 05:48:26;;;;;;;7.40;4.15;;;;;;;;;;5050262;28;20051;-77
2023/01/06 05:50:52;;;;;;;9.23;4.60;;;;;;;;;;5036938;28;20075;-77
2023/01/06 05:53:18;;;;;;;10.30;5.13;;;;;;;;;;5064152;28;20097;-78
2023/01/06 05:55:44;;;;;;;6.40;4.38;;;;;;;;;;5064533;28;20106;-77
2023/01/06 05:58:10;;;;;;;6.38;4.13;;;;;;;;;;5062096;28;20045;-77
2023/01/06 06:00:36;;;;;;;7.47;4.40;;;;;;;;;;5070182;28;20474;-77
2023/01/06 06:03:02;;;;;;;7.97;5.30;;;;;;;;;;5065203;28;20477;-77
2023/01/06 06:05:28;;;;;;;8.50;4.93;;;;;;;;;;5061258;28;20085;-77
2023/01/06 06:07:55;;;;;;;10.95;4.72;;;;;;;;;;5064700;28;20048;-77
2023/01/06 06:10:22;;;;;;;7.10;4.50;;;;;;;;;;5057411;28;20040;-78
2023/01/06 06:12:50;;;;;;;6.68;4.57;;;;;;;;;;5040481;28;20049;-77
2023/01/06 06:15:16;;;;;;;7.68;5.05;;;;;;;;;;5069905;28;20040;-77
2023/01/06 06:17:42;;;;;;;11.45;5.35;;;;;;;;;;5041953;28;20037;-77
2023/01/06 06:20:08;;;;;;;9.30;5.40;;;;;;;;;;5068095;28;20489;-77
2023/01/06 06:22:34;;;;;;;7.90;5.00;;;;;;;;;;5073311;28;20119;-77
2023/01/06 06:25:00;;;;;;;9.23;6.00;;;;;;;;;;5057259;28;20048;-77
2023/01/06 06:27:27;;;;;;;10.15;5.63;;;;;;;;;;5073665;28;20055;-78
2023/01/06 06:29:53;;;;;;;8.38;6.20;;;;;;;;;;5073705;28;20132;-77
2023/01/06 06:32:19;;;;;;;11.45;6.18;;;;;;;;;;5073681;28;20045;-77
2023/01/06 06:34:45;;;;;;;9.75;5.97;;;;;;;;;;5072947;28;20137;-77
2023/01/06 06:37:11;;;;;;;10.02;6.53;;;;;;;;;;5073703;28;20041;-78
2023/01/06 06:39:37;;;;;;;10.93;6.80;;;;;;;;;;5073088;28;20040;-77
2023/01/06 06:42:04;;;;;;;9.73;6.40;;;;;;;;;;5053297;28;20120;-77
2023/01/06 06:44:30;;;;;;;10.88;7.07;;;;;;;;;;5052895;28;20037;-77
2023/01/06 06:46:57;;;;;;;10.18;6.95;;;;;;;;;;5054654;28;20087;-77
2023/01/06 06:49:23;;;;;;;9.85;6.95;;;;;;;;;;5053254;28;20029;-77
2023/01/06 06:51:49;;;;;;;9.13;6.03;;;;;;;;;;5052642;28;20090;-78
2023/01/06 06:54:15;;;;;;;9.82;6.25;;;;;;;;;;5053360;28;20067;-77
2023/01/06 06:56:41;;;;;;;10.55;6.70;;;;;;;;;;5052471;28;20057;-77
2023/01/06 06:59:07;;;;;;;9.52;6.05;;;;;;;;;;5056934;28;20067;-78
2023/01/06 07:01:33;;;;;;;8.82;6.50;;;;;;;;;;5056046;28;20036;-78
2023/01/06 07:03:59;;;;;;;7.65;6.05;;;;;;;;;;5042544;28;20072;-77
2023/01/06 07:06:26;;;;;;;8.43;6.07;;;;;;;;;;5056783;28;20040;-78
2023/01/06 07:08:53;;;;;;;9.13;5.72;;;;;;;;;;5072794;28;20570;-77
2023/01/06 07:11:19;;;;;;;7.78;5.18;;;;;;;;;;5056129;28;20036;-78
2023/01/06 07:13:45;;;;;;;8.90;4.93;;;;;;;;;;5072513;28;20036;-77
2023/01/06 07:16:11;;;;;;;11.10;4.88;;;;;;;;;;5072749;28;20048;-77
2023/01/06 07:18:38;;;;;;;7.25;4.90;;;;;;;;;;5072452;28;20047;-78
2023/01/06 07:21:04;;;;;;;6.63;4.00;;;;;;;;;;5072959;28;20112;-78
2023/01/06 07:23:31;;;;;;;7.07;4.82;;;;;;;;;;5073986;28;20044;-77
2023/01/06 07:25:58;;;;;;;6.82;4.95;;;;;;;;;;5072666;28;20123;-77
2023/01/06 07:28:25;;;;;;;8.13;5.20;;;;;;;;;;5072519;28;20041;-77
2023/01/06 07:30:51;;;;;;;7.57;4.25;;;;;;;;;;5072239;28;20485;-77
2023/01/06 07:33:18;;;;;;;7.68;3.72;;;;;;;;;;5071648;28;20041;-77
2023/01/06 07:35:44;;;;;;;7.80;4.22;;;;;;;;;;5065227;28;20110;-77
2023/01/06 07:38:11;;;;;;;7.05;4.22;;;;;;;;;;5072161;28;20097;-77
2023/01/06 07:40:37;;;;;;;6.95;4.03;;;;;;;;;;5072095;28;20093;-78
2023/01/06 07:43:07;;;;;;;4.85;3.35;;;;;;;;;;5060508;28;20555;-77
2023/01/06 07:45:34;;;;;;;10.55;3.58;;;;;;;;;;5052350;28;20125;-78
2023/01/06 07:48:00;;;;;;;13.30;3.08;;;;;;;;;;5053301;28;20482;-78
2023/01/06 07:50:26;;;;;;;10.18;2.95;;;;;;;;;;5053583;28;20032;-77
2023/01/06 07:52:52;;;;;;;8.65;3.30;;;;;;;;;;5051793;28;20076;-78
2023/01/06 07:55:18;;;;;;;6.47;3.05;;;;;;;;;;5051727;28;20048;-78
2023/01/06 07:57:44;;;;;;;7.18;2.65;;;;;;;;;;5052723;28;20049;-77
2023/01/06 08:00:11;;;;;;;5.78;2.00;;;;;;;;;;5051917;28;20114;-77
2023/01/06 08:02:37;;;;;;;7.72;1.70;;;;;;;;;;5051377;28;20397;-77
2023/01/06 08:05:03;;;;;;;10.30;1.63;;;;;;;;;;5053144;28;20053;-77
2023/01/06 08:07:29;;;;;;;7.93;1.48;;;;;;;;;;5051755;28;20076;-77
2023/01/06 08:09:55;;;;;;;5.45;1.30;;;;;;;;;;5051525;28;20037;-78
2023/01/06 08:12:21;;;;;;;8.07;1.20;;;;;;;;;;5051553;28;20052;-77
2023/01/06 08:14:47;;;;;;;4.53;1.02;;;;;;;;;;5051497;28;20450;-78
2023/01/06 08:17:13;;;;;;;7.15;1.27;;;;;;;;;;5084965;28;20049;-78
2023/01/06 08:19:39;;;;;;;8.82;1.00;;;;;;;;;;5051351;28;20428;-78
2023/01/06 08:22:05;;;;;;;8.43;1.17;;;;;;;;;;5051560;28;20036;-78
2023/01/06 08:24:31;;;;;;;6.88;1.10;;;;;;;;;;5051307;28;20036;-78
2023/01/06 08:26:57;;;;;;;7.05;1.40;;;;;;;;;;5052696;28;20106;-78
2023/01/06 08:29:24;;;;;;;8.13;1.20;;;;;;;;;;5051604;28;20036;-78
2023/01/06 08:31:50;;;;;;;4.75;1.02;;;;;;;;;;5050921;28;20107;-78
2023/01/06 08:34:17;;;;;;;5.57;0.93;;;;;;;;;;5018418;28;20382;-78
2023/01/06 08:36:43;;;;;;;4.35;0.77;;;;;;;;;;5034229;28;20044;-78
2023/01/06 08:39:10;;;;;;;4.55;0.98;;;;;;;;;;5052855;28;20033;-78
2023/01/06 08:41:36;;;;;;;5.03;0.90;;;;;;;;;;5052856;28;20045;-78
2023/01/06 08:44:02;;;;;;;6.72;0.75;;;;;;;;;;5050356;28;20524;-78
2023/01/06 08:46:28;;;;;;;6.68;1.00;;;;;;;;;;5052767;28;20393;-78
2023/01/06 08:48:55;;;;;;;6.82;0.95;;;;;;;;;;5050502;28;20056;-78
2023/01/06 08:51:24;;;;;;;5.30;1.80;;;;;;;;;;5051147;28;20041;-79
2023/01/06 08:53:51;;;;;;;6.63;1.33;;;;;;;;;;5050991;28;20081;-78
2023/01/06 08:56:22;;;;;;;6.53;1.20;;;;;;;;;;5052223;28;20252;-78
2023/01/06 08:58:52;;;;;;;6.72;1.02;;;;;;;;;;5050840;28;20045;-78
2023/01/06 09:01:18;;;;;;;5.65;1.00;;;;;;;;;;5034741;28;20074;-78
2023/01/06 09:03:45;;;;;;;3.00;0.70;;;;;;;;;;5050659;28;20114;-78
2023/01/06 09:06:11;;;;;;;6.20;0.90;;;;;;;;;;5051286;28;20047;-78
2023/01/06 09:08:37;;;;;;;8.45;1.10;;;;;;;;;;5051449;28;20508;-78
2023/01/06 09:11:07;;;;;;;6.43;1.00;;;;;;;;;;5050935;28;20052;-78
2023/01/06 09:13:33;;;;;;;6.22;1.20;;;;;;;;;;5051404;28;20124;-78
2023/01/06 09:15:59;;;;;;;5.60;1.20;;;;;;;;;;5050261;28;20124;-78
2023/01/06 09:18:25;;;;;;;8.20;1.40;;;;;;;;;;5050675;28;20032;-78
2023/01/06 09:20:51;;;;;;;6.10;1.30;;;;;;;;;;5050701;28;20072;-78
2023/01/06 09:23:17;;;;;;;6.35;1.00;;;;;;;;;;5051052;28;20450;-76
2023/01/06 09:25:44;;;;;;;6.90;1.38;;;;;;;;;;5050658;28;20081;-76
2023/01/06 09:28:10;;;;;;;4.15;0.73;;;;;;;;;;5050526;28;20044;-76
2023/01/06 09:30:36;;;;;;;6.95;0.82;;;;;;;;;;5052111;28;20049;-77
2023/01/06 09:33:02;;;;;;;4.85;1.00;;;;;;;;;;5050257;28;20051;-77
2023/01/06 09:35:28;;;;;;;11.05;1.38;;;;;;;;;;5050814;28;20091;-76
2023/01/06 09:37:54;;;;;;;6.13;0.93;;;;;;;;;;5050158;28;20033;-77
2023/01/06 09:40:23;;;;;;;5.60;1.10;;;;;;;;;;5050650;28;20072;-77
2023/01/06 09:43:01;;;;;;;4.85;1.02;;;;;;;;;;5033411;28;20037;-77
2023/01/06 09:45:35;;;;;;;6.28;1.40;;;;;;;;;;5050752;28;20402;-77
2023/01/06 09:48:03;;;;;;;10.57;1.85;;;;;;;;;;5051708;28;20037;-77
2023/01/06 09:50:46;;;;;;;6.95;1.20;;;;;;;;;;5050123;28;20041;-77
2023/01/06 09:53:18;;;;;;;5.60;1.00;;;;;;;;;;5054208;28;20514;-78
2023/01/06 09:55:46;;;;;;;7.50;1.02;;;;;;;;;;5065297;28;20578;-77
2023/01/06 09:58:18;;;;;;;6.15;1.30;;;;;;;;;;5051225;28;20055;-77
2023/01/06 10:00:48;;;;;;;5.80;1.00;;;;;;;;;;5047043;28;20040;-77
2023/01/06 10:03:16;;;;;;;8.98;1.10;;;;;;;;;;5074029;28;20079;-77
2023/01/06 10:05:51;;;;;;;7.53;1.10;;;;;;;;;;5073794;28;20044;-78
2023/01/06 10:08:38;;;;;;;7.28;1.40;;;;;;;;;;5074468;28;20458;-77
2023/01/06 10:11:15;;;;;;;10.00;1.30;;;;;;;;;;5048953;28;20040;-77
2023/01/06 10:13:44;;;;;;;7.05;1.35;;;;;;;;;;5073862;28;20052;-77
2023/01/06 10:16:28;;;;;;;6.38;1.40;;;;;;;;;;5073903;28;20626;-77
2023/01/06 10:19:01;;;;;;;7.38;1.13;;;;;;;;;;5073987;28;20040;-77
2023/01/06 10:21:32;;;;;;;9.63;1.50;;;;;;;;;;5073754;28;20041;-77
2023/01/06 10:24:01;;;;;;;8.10;1.42;;;;;;;;;;5056712;28;20080;-77
2023/01/06 10:26:31;;;;;;;9.10;1.30;;;;;;;;;;5074238;28;20036;-77
2023/01/06 10:29:17;;;;;;;8.32;1.50;;;;;;;;;;5074541;28;20040;-78
2023/01/06 10:31:47;;;;;;;9.05;1.52;;;;;;;;;;5073698;28;20037;-77
2023/01/06 10:34:19;;;;;;;10.73;2.08;;;;;;;;;;5066949;28;20048;-78
2023/01/06 10:36:47;;;;;;;9.02;2.50;;;;;;;;;;5073220;28;20124;-77
2023/01/06 10:39:19;;;;;;;13.32;2.90;;;;;;;;;;5072993;28;20106;-77
2023/01/06 10:44:49;;;;;;;10.23;2.90;;;;;;;;;;5053389;28;20049;-78
2023/01/06 10:47:27;;;;;;;10.10;3.10;;;;;;;;;;5036364;28;20037;-77
2023/01/06 10:49:53;;;;;;;11.95;3.50;;;;;;;;;;5053187;28;20053;-78
2023/01/06 10:52:20;;;;;;;12.50;3.42;;;;;;;;;;5054257;28;20033;-77
2023/01/06 10:54:47;;;;;;;16.05;4.18;;;;;;;;;;5052999;28;20091;-77
2023/01/06 10:57:37;;;;;;;10.20;3.03;;;;;;;;;;5052575;28;20056;-78
2023/01/06 11:00:21;;;;;;;8.65;2.33;;;;;;;;;;5045062;28;20132;-77
2023/01/06 11:02:48;;;;;;;11.82;2.53;;;;;;;;;;5039422;28;20044;-77
2023/01/06 11:05:15;;;;;;;9.30;2.28;;;;;;;;;;5052838;28;20506;-77
2023/01/06 11:08:07;;;;;;;11.52;3.35;;;;;;;;;;5052325;28;20037;-76
2023/01/06 11:10:37;;;;;;;15.15;3.50;;;;;;;;;;5053188;28;20048;-77
2023/01/06 11:13:04;;;;;;;11.52;3.13;;;;;;;;;;5052717;28;20497;-77
2023/01/06 11:15:35;;;;;;;12.93;4.07;;;;;;;;;;5036236;28;20056;-76
2023/01/06 11:18:02;;;;;;;13.85;4.68;;;;;;;;;;5052609;28;20049;-76
2023/01/06 11:20:29;;;;;;;16.30;5.20;;;;;;;;;;5053020;28;20060;-76
2023/01/06 11:23:11;;;;;;;15.10;4.70;;;;;;;;;;5052654;28;20437;-76
2023/01/06 11:25:37;;;;;;;13.88;3.90;;;;;;;;;;5052585;28;20049;-76
2023/01/06 11:28:09;;;;;;;13.70;4.00;;;;;;;;;;5052219;28;20047;-76
2023/01/06 11:30:41;;;;;;;10.70;3.38;;;;;;;;;;5052766;28;20501;-76
2023/01/06 11:33:17;;;;;;;11.10;2.42;;;;;;;;;;5052328;28;20047;-76
2023/01/06 11:35:43;;;;;;;8.48;2.05;;;;;;;;;;5045155;28;20052;-76
2023/01/06 11:38:13;;;;;;;8.48;2.00;;;;;;;;;;5051846;28;20129;-75
2023/01/06 11:40:39;;;;;;;9.10;1.60;;;;;;;;;;5052578;28;20041;-75
2023/01/06 11:43:12;;;;;;;11.52;2.05;;;;;;;;;;5051990;28;20098;-77
2023/01/06 11:45:39;;;;;;;7.82;1.58;;;;;;;;;;5035912;28;20040;-77
2023/01/06 11:48:25;;;;;;;6.95;1.40;;;;;;;;;;5053509;28;20047;-77
2023/01/06 11:50:55;;;;;;;5.47;1.37;;;;;;;;;;5038365;28;20041;-77
2023/01/06 11:53:23;;;;;;;8.05;1.55;;;;;;;;;;5051759;28;20037;-76
2023/01/06 11:56:27;;;;;;;8.73;1.27;;;;;;;;;;5053037;28;20088;-76
2023/01/06 11:59:10;;;;;;;10.55;1.73;;;;;;;;;;5014919;28;20049;-75
2023/01/06 12:01:40;;;;;;;11.15;1.77;;;;;;;;;;5014732;28;20041;-76
2023/01/06 12:04:35;;;;;;;10.52;1.33;;;;;;;;;;5069526;28;20045;-76
2023/01/06 12:07:14;;;;;;;8.98;1.65;;;;;;;;;;5043702;28;20426;-76
2023/01/06 12:09:44;;;;;;;10.48;1.48;;;;;;;;;;5051999;28;20124;-76
2023/01/06 12:12:12;;;;;;;11.95;2.03;;;;;;;;;;5051968;28;20052;-76
2023/01/06 12:14:39;;;;;;;13.13;2.92;;;;;;;;;;5053108;28;20049;-76
2023/01/06 12:17:23;;;;;;;17.80;3.38;;;;;;;;;;5051598;28;20124;-76
2023/01/06 12:19:53;;;;;;;16.67;3.60;;;;;;;;;;5037495;28;20041;-76
2023/01/06 12:22:26;;;;;;;14.90;3.90;;;;;;;;;;5051087;28;20075;-76
2023/01/06 12:24:55;;;;;;;19.27;4.90;;;;;;;;;;5039210;28;20498;-76
2023/01/06 12:27:31;;;;;;;18.60;5.30;;;;;;;;;;5034535;28;20113;-76
2023/01/06 12:29:59;;;;;;;20.92;6.32;;;;;;;;;;5031643;28;20045;-76
2023/01/06 12:32:28;;;;;;;16.98;4.65;;;;;;;;;;5043412;28;20045;-77
2023/01/06 12:34:59;;;;;;;20.10;4.90;;;;;;;;;;5051363;28;20029;-76
2023/01/06 12:37:42;;;;;;;12.73;3.40;;;;;;;;;;5051078;28;20048;-76
2023/01/06 12:40:18;;;;;;;11.88;3.13;;;;;;;;;;5051033;28;20037;-76
2023/01/06 12:43:03;;;;;;;12.07;2.20;;;;;;;;;;5051768;28;20037;-76
2023/01/06 12:45:48;;;;;;;13.38;3.17;;;;;;;;;;5051085;28;20386;-76
2023/01/06 12:48:22;;;;;;;12.70;2.03;;;;;;;;;;5051001;28;20122;-76
2023/01/06 12:50:51;;;;;;;10.63;1.50;;;;;;;;;;5046014;28;20111;-77
2023/01/06 12:53:17;;;;;;;10.23;1.67;;;;;;;;;;5042847;28;20124;-77
2023/01/06 12:55:53;;;;;;;8.73;1.40;;;;;;;;;;5050991;28;20079;-76
2023/01/06 12:58:42;;;;;;;10.95;1.17;;;;;;;;;;5051051;28;20391;-76
2023/01/06 13:01:14;;;;;;;9.90;1.65;;;;;;;;;;5051278;28;20033;-76
2023/01/06 13:03:53;;;;;;;14.98;2.05;;;;;;;;;;5051029;28;20045;-76
2023/01/06 13:06:22;;;;;;;10.18;1.50;;;;;;;;;;5034155;28;20033;-76
2023/01/06 13:08:51;;;;;;;11.20;1.80;;;;;;;;;;5052075;28;20500;-76
2023/01/06 13:11:26;;;;;;;9.23;1.77;;;;;;;;;;5038498;28;20068;-76
2023/01/06 13:14:15;;;;;;;14.07;2.50;;;;;;;;;;5050900;28;20048;-76
2023/01/06 13:16:41;;;;;;;12.02;2.05;;;;;;;;;;5039646;28;20405;-76
2023/01/06 13:19:14;;;;;;;7.28;1.60;;;;;;;;;;5050982;28;20091;-76
2023/01/06 13:21:41;;;;;;;10.07;1.50;;;;;;;;;;5051048;28;20041;-76
2023/01/06 13:24:26;;;;;;;11.20;1.42;;;;;;;;;;5050738;28;20068;-76
2023/01/06 13:27:28;;;;;;;8.80;1.63;;;;;;;;;;5039874;28;20510;-76
2023/01/06 13:30:13;;;;;;;10.95;1.40;;;;;;;;;;4995066;28;20057;-76
2023/01/06 13:32:47;;;;;;;12.00;1.48;;;;;;;;;;5084088;28;20513;-76
2023/01/06 13:35:31;;;;;;;13.90;1.80;;;;;;;;;;5054574;28;20068;-76
2023/01/06 13:38:16;;;;;;;10.68;2.13;;;;;;;;;;5054951;28;20532;-77
2023/01/06 13:40:43;;;;;;;12.93;1.85;;;;;;;;;;5054869;28;20044;-76
2023/01/06 13:43:42;;;;;;;12.82;1.98;;;;;;;;;;5054588;28;20044;-76
2023/01/06 13:46:11;;;;;;;8.10;1.90;;;;;;;;;;5050182;28;20052;-76
2023/01/06 13:48:39;;;;;;;12.57;1.95;;;;;;;;;;5073987;28;20040;-76
2023/01/06 13:51:08;;;;;;;10.23;1.75;;;;;;;;;;5057762;28;20036;-76
2023/01/06 13:53:42;;;;;;;12.35;2.03;;;;;;;;;;5073972;28;20087;-76
2023/01/06 13:56:22;;;;;;;13.30;2.13;;;;;;;;;;5059969;28;20041;-76
2023/01/06 13:58:49;;;;;;;11.32;2.13;;;;;;;;;;5057935;28;20127;-76
2023/01/06 14:01:18;;;;;;;12.02;2.00;;;;;;;;;;5108061;28;20036;-76
2023/01/06 14:03:45;;;;;;;14.05;2.45;;;;;;;;;;5074331;28;20040;-77
2023/01/06 14:06:13;;;;;;;14.10;2.10;;;;;;;;;;5057737;28;20048;-77
2023/01/06 14:08:50;;;;;;;8.77;1.95;;;;;;;;;;5073828;28;20036;-76
2023/01/06 14:11:36;;;;;;;10.65;2.20;;;;;;;;;;5073858;28;20048;-76
2023/01/06 14:14:07;;;;;;;9.20;2.30;;;;;;;;;;5074276;28;20059;-76
2023/01/06 14:16:40;;;;;;;11.05;2.30;;;;;;;;;;5073467;28;20037;-76
2023/01/06 14:19:08;;;;;;;12.43;2.90;;;;;;;;;;5063693;28;20048;-76
2023/01/06 14:21:34;;;;;;;19.20;4.10;;;;;;;;;;5070020;28;20044;-76
2023/01/06 14:24:03;;;;;;;15.40;3.97;;;;;;;;;;5066715;28;20493;-76
2023/01/06 14:26:48;;;;;;;14.20;4.18;;;;;;;;;;5068102;28;20036;-76
2023/01/06 14:29:33;;;;;;;13.48;3.38;;;;;;;;;;5057105;28;20437;-76
2023/01/06 14:31:59;;;;;;;14.70;3.42;;;;;;;;;;5059778;28;20108;-76
2023/01/06 14:34:25;;;;;;;12.18;2.50;;;;;;;;;;5063273;28;20397;-76
2023/01/06 14:36:51;;;;;;;14.75;2.60;;;;;;;;;;5069901;28;20044;-76
2023/01/06 14:39:23;;;;;;;13.15;2.72;;;;;;;;;;5056989;28;20040;-76
2023/01/06 14:41:57;;;;;;;12.30;2.63;;;;;;;;;;5058920;28;20033;-76
2023/01/06 14:44:29;;;;;;;11.30;2.22;;;;;;;;;;5064405;28;20041;-76
2023/01/06 14:47:03;;;;;;;7.55;1.85;;;;;;;;;;5054677;28;20040;-77
2023/01/06 14:49:34;;;;;;;7.78;1.73;;;;;;;;;;5036695;28;20036;-76
2023/01/06 14:52:03;;;;;;;14.43;2.50;;;;;;;;;;5053346;28;20049;-77
2023/01/06 14:54:31;;;;;;;14.05;2.20;;;;;;;;;;5036367;28;20037;-76
2023/01/06 14:56:58;;;;;;;12.23;1.70;;;;;;;;;;5054575;28;20575;-76